Time;durP1;ratioP1;P1;durP2;ratioP2;P2;SDS_P1;SDS_P2;PMS_P1;PMS_P2;Temp;Humidity;BMP_temperature;BMP_pressure;BME280_temperature;BME280_humidity;BME280_pressure;Samples;Min_cycle;Max_cycle;Signal;HPM_P1;HPM_P2
2021/11/18 00:00:14;;;;;;;;;24.50;21.75;;;;;;;;5090051;27;45614;-94
2021/11/18 00:02:39;;;;;;;;;27.00;25.75;;;;;;;;5091442;28;45171;-95
2021/11/18 00:05:06;;;;;;;;;26.25;24.25;;;;;;;;5087800;27;46062;-89
2021/11/18 00:07:31;;;;;;;;;23.75;21.50;;;;;;;;5073043;28;45725;-93
2021/11/18 00:09:57;;;;;;;;;28.00;27.67;;;;;;;;5074159;28;45001;-93
2021/11/18 00:12:23;;;;;;;;;25.50;24.75;;;;;;;;5075962;28;45311;-94
2021/11/18 00:14:48;;;;;;;;;31.25;30.00;;;;;;;;5077331;28;47069;-95
2021/11/18 00:17:13;;;;;;;;;28.00;27.00;;;;;;;;5079096;28;45696;-94
2021/11/18 00:19:38;;;;;;;;;34.33;31.00;;;;;;;;5094418;28;45016;-93
2021/11/18 00:22:04;;;;;;;;;22.00;21.00;;;;;;;;5078216;27;44974;-90
2021/11/18 00:24:29;;;;;;;;;25.33;24.33;;;;;;;;5072409;28;45229;-87
2021/11/18 00:26:55;;;;;;;;;25.75;25.00;;;;;;;;5082523;27;45043;-93
2021/11/18 00:29:21;;;;;;;;;21.25;20.50;;;;;;;;5082649;28;45129;-94
2021/11/18 00:31:46;;;;;;;;;22.25;21.00;;;;;;;;5069840;28;45241;-94
2021/11/18 00:34:11;;;;;;;;;21.33;20.67;;;;;;;;5085818;28;45877;-93
2021/11/18 00:36:37;;;;;;;;;22.00;21.00;;;;;;;;5090552;27;45470;-93
2021/11/18 00:39:05;;;;;;;;;16.67;16.33;;;;;;;;5091758;27;45141;-91
2021/11/18 00:41:31;;;;;;;;;19.50;19.50;;;;;;;;5090527;28;44973;-94
2021/11/18 00:43:56;;;;;;;;;20.25;18.00;;;;;;;;5090223;28;47835;-91
2021/11/18 00:46:22;;;;;;;;;20.00;17.00;;;;;;;;5090752;28;45001;-90
2021/11/18 00:48:47;;;;;;;;;22.25;20.75;;;;;;;;5092179;28;45142;-93
2021/11/18 00:51:15;;;;;;;;;21.75;20.75;;;;;;;;5090595;27;45638;-90
2021/11/18 00:53:47;;;;;;;;;19.75;17.75;;;;;;;;5090878;27;45261;-93
2021/11/18 00:56:14;;;;;;;;;23.00;19.50;;;;;;;;5089966;28;45556;-90
2021/11/18 00:58:39;;;;;;;;;22.25;20.50;;;;;;;;5091330;27;45067;-92
2021/11/18 01:01:05;;;;;;;;;18.00;16.75;;;;;;;;5090122;28;45350;-91
2021/11/18 01:03:31;;;;;;;;;16.00;15.75;;;;;;;;5089792;28;46104;-93
2021/11/18 01:05:56;;;;;;;;;20.50;18.25;;;;;;;;5091434;27;45011;-92
2021/11/18 01:08:22;;;;;;;;;19.25;18.00;;;;;;;;5091673;28;45090;-93
2021/11/18 01:10:50;;;;;;;;;22.00;19.33;;;;;;;;5090578;28;44995;-91
2021/11/18 01:13:15;;;;;;;;;14.25;14.25;;;;;;;;5090338;28;47676;-91
2021/11/18 01:15:41;;;;;;;;;20.25;18.50;;;;;;;;5090440;28;45095;-93
2021/11/18 01:18:07;;;;;;;;;19.75;17.00;;;;;;;;5091443;28;44988;-89
2021/11/18 01:20:35;;;;;;;;;22.25;19.00;;;;;;;;5090439;28;45323;-92
2021/11/18 01:23:02;;;;;;;;;21.00;19.25;;;;;;;;5091203;28;47717;-95
2021/11/18 01:25:27;;;;;;;;;21.25;19.75;;;;;;;;5091186;27;45118;-92
2021/11/18 01:27:53;;;;;;;;;21.25;19.75;;;;;;;;5090506;27;44750;-95
2021/11/18 01:30:20;;;;;;;;;22.00;20.67;;;;;;;;5074569;28;45095;-91
2021/11/18 01:32:46;;;;;;;;;23.25;22.75;;;;;;;;5083548;27;47933;-94
2021/11/18 01:35:11;;;;;;;;;26.50;22.75;;;;;;;;5091635;27;44925;-93
2021/11/18 01:37:37;;;;;;;;;26.00;24.67;;;;;;;;5073900;28;44984;-94
2021/11/18 01:40:04;;;;;;;;;27.50;25.25;;;;;;;;5072726;28;45007;-91
2021/11/18 01:42:29;;;;;;;;;28.50;26.00;;;;;;;;5070132;28;47127;-93
2021/11/18 01:44:55;;;;;;;;;29.00;26.67;;;;;;;;5071900;28;45419;-92
2021/11/18 01:47:20;;;;;;;;;34.00;27.50;;;;;;;;5076125;27;45270;-94
2021/11/18 01:49:47;;;;;;;;;27.00;26.00;;;;;;;;5070896;28;45064;-94
2021/11/18 01:52:14;;;;;;;;;31.25;29.50;;;;;;;;5091224;27;46114;-95
2021/11/18 01:54:41;;;;;;;;;24.25;23.00;;;;;;;;5089141;27;45666;-95
2021/11/18 01:57:08;;;;;;;;;24.00;21.50;;;;;;;;5077683;27;45044;-94
2021/11/18 01:59:35;;;;;;;;;25.25;25.00;;;;;;;;5070952;28;45244;-90
2021/11/18 02:02:01;;;;;;;;;25.50;21.00;;;;;;;;5084623;28;47793;-93
2021/11/18 02:04:27;;;;;;;;;23.50;21.75;;;;;;;;5090806;27;45265;-88
2021/11/18 02:07:06;;;;;;;;;27.00;24.00;;;;;;;;5077689;28;45123;-90
2021/11/18 02:09:37;;;;;;;;;23.00;22.25;;;;;;;;5068863;28;45259;-87
2021/11/18 02:12:14;;;;;;;;;24.00;21.75;;;;;;;;5070256;28;46086;-88
2021/11/18 02:14:39;;;;;;;;;25.00;24.25;;;;;;;;5068143;28;45442;-93
2021/11/18 02:17:06;;;;;;;;;25.67;24.67;;;;;;;;5083304;28;45195;-88
2021/11/18 02:19:37;;;;;;;;;25.75;23.75;;;;;;;;5089914;28;45161;-88
2021/11/18 02:22:02;;;;;;;;;24.00;22.75;;;;;;;;5089623;28;47096;-88
2021/11/18 02:24:29;;;;;;;;;22.00;21.33;;;;;;;;5080405;28;45365;-91
2021/11/18 02:26:55;;;;;;;;;18.25;18.25;;;;;;;;5068392;28;44923;-90
2021/11/18 02:29:21;;;;;;;;;25.00;23.00;;;;;;;;5069369;28;45153;-88
2021/11/18 02:31:51;;;;;;;;;20.75;20.50;;;;;;;;5067205;28;47612;-89
2021/11/18 02:34:20;;;;;;;;;22.75;21.50;;;;;;;;5067730;28;45757;-90
2021/11/18 02:36:45;;;;;;;;;24.00;21.00;;;;;;;;5075673;28;45335;-90
2021/11/18 02:39:10;;;;;;;;;25.67;23.00;;;;;;;;5076179;28;45167;-94
2021/11/18 02:41:37;;;;;;;;;23.25;21.00;;;;;;;;5068707;28;45340;-95
2021/11/18 02:44:02;;;;;;;;;17.50;16.25;;;;;;;;5069929;28;45524;-94
2021/11/18 02:46:28;;;;;;;;;21.00;19.00;;;;;;;;5077777;28;45726;-93
2021/11/18 02:48:53;;;;;;;;;20.33;20.33;;;;;;;;5088060;28;44985;-93
2021/11/18 02:51:19;;;;;;;;;20.50;18.50;;;;;;;;5086700;27;45297;-92
2021/11/18 02:53:45;;;;;;;;;23.00;22.00;;;;;;;;5084027;28;45559;-91
2021/11/18 02:56:10;;;;;;;;;19.00;18.25;;;;;;;;5085252;28;45452;-91
2021/11/18 02:58:35;;;;;;;;;21.25;20.75;;;;;;;;5089412;27;45253;-95
2021/11/18 03:01:12;;;;;;;;;19.67;19.67;;;;;;;;5081863;28;45501;-88
2021/11/18 03:03:39;;;;;;;;;18.75;16.25;;;;;;;;5069163;28;46334;-88
2021/11/18 03:06:05;;;;;;;;;15.00;13.00;;;;;;;;5074129;28;45161;-90
2021/11/18 03:08:30;;;;;;;;;18.75;17.50;;;;;;;;5088433;28;45185;-90
2021/11/18 03:10:56;;;;;;;;;24.00;19.33;;;;;;;;5089093;28;45865;-88
2021/11/18 03:13:22;;;;;;;;;23.50;20.75;;;;;;;;5070985;28;45302;-89
2021/11/18 03:15:48;;;;;;;;;21.50;19.25;;;;;;;;5072281;28;45266;-85
2021/11/18 03:18:14;;;;;;;;;22.25;20.00;;;;;;;;5070570;28;44996;-90
2021/11/18 03:20:40;;;;;;;;;23.50;20.50;;;;;;;;5071501;28;45561;-88
2021/11/18 03:23:05;;;;;;;;;25.00;22.75;;;;;;;;5080210;27;45134;-89
2021/11/18 03:25:32;;;;;;;;;28.00;22.75;;;;;;;;5083753;27;45153;-88
2021/11/18 03:27:58;;;;;;;;;23.00;21.50;;;;;;;;5089825;27;45049;-91
2021/11/18 03:30:26;;;;;;;;;15.00;14.50;;;;;;;;5069693;28;47216;-87
2021/11/18 03:32:53;;;;;;;;;19.75;18.25;;;;;;;;5071561;28;45047;-85
2021/11/18 03:35:18;;;;;;;;;21.75;20.00;;;;;;;;5069770;28;45149;-88
2021/11/18 03:37:43;;;;;;;;;24.00;21.33;;;;;;;;5072351;28;44976;-94
2021/11/18 03:40:10;;;;;;;;;21.33;19.33;;;;;;;;5072828;28;47371;-92
2021/11/18 03:42:35;;;;;;;;;22.00;21.00;;;;;;;;5092376;27;45863;-92
2021/11/18 03:45:00;;;;;;;;;24.00;20.33;;;;;;;;5092558;28;44940;-93
2021/11/18 03:47:26;;;;;;;;;23.67;20.67;;;;;;;;5091951;28;45247;-88
2021/11/18 03:49:51;;;;;;;;;23.00;22.00;;;;;;;;5094313;28;45814;-90
2021/11/18 03:52:17;;;;;;;;;14.00;14.00;;;;;;;;5092125;28;45062;-87
2021/11/18 03:54:44;;;;;;;;;19.00;17.50;;;;;;;;5092199;28;45199;-94
2021/11/18 03:57:09;;;;;;;;;17.00;16.75;;;;;;;;5092704;28;45071;-90
2021/11/18 03:59:37;;;;;;;;;21.75;19.75;;;;;;;;5092802;28;47841;-91
2021/11/18 04:02:02;;;;;;;;;24.00;19.00;;;;;;;;5093080;28;45146;-92
2021/11/18 04:04:30;;;;;;;;;18.00;17.00;;;;;;;;5093989;28;45792;-89
2021/11/18 04:06:55;;;;;;;;;18.75;16.75;;;;;;;;5093518;28;45051;-92
2021/11/18 04:09:21;;;;;;;;;22.00;19.00;;;;;;;;5093551;28;46917;-91
2021/11/18 04:11:48;;;;;;;;;21.00;16.00;;;;;;;;5093983;28;45030;-94
2021/11/18 04:14:14;;;;;;;;;19.50;18.00;;;;;;;;5093953;28;45056;-93
2021/11/18 04:16:39;;;;;;;;;24.75;21.00;;;;;;;;5093049;28;45187;-90
2021/11/18 04:19:05;;;;;;;;;22.75;20.25;;;;;;;;5093202;28;47320;-94
2021/11/18 04:21:32;;;;;;;;;23.25;21.00;;;;;;;;5092783;28;45493;-94
2021/11/18 04:23:58;;;;;;;;;22.00;18.25;;;;;;;;5084555;28;45236;-90
2021/11/18 04:26:24;;;;;;;;;24.00;19.75;;;;;;;;5072526;28;45154;-94
2021/11/18 04:28:49;;;;;;;;;22.00;20.00;;;;;;;;5075849;28;45336;-91
2021/11/18 04:31:16;;;;;;;;;18.67;17.67;;;;;;;;5079699;28;45907;-91
2021/11/18 04:33:42;;;;;;;;;21.00;19.50;;;;;;;;5080656;28;45229;-92
2021/11/18 04:36:09;;;;;;;;;20.33;18.00;;;;;;;;5093428;28;45034;-91
2021/11/18 04:38:34;;;;;;;;;21.75;20.25;;;;;;;;5094947;27;45308;-91
2021/11/18 04:41:00;;;;;;;;;20.67;19.67;;;;;;;;5077502;28;45075;-91
2021/11/18 04:43:26;;;;;;;;;15.25;15.25;;;;;;;;5075856;28;45060;-93
2021/11/18 04:45:52;;;;;;;;;20.25;18.50;;;;;;;;5075055;28;45101;-89
2021/11/18 04:48:17;;;;;;;;;21.00;19.75;;;;;;;;5094002;28;47484;-91
2021/11/18 04:50:43;;;;;;;;;21.25;18.00;;;;;;;;5094126;28;45052;-92
2021/11/18 04:53:08;;;;;;;;;22.00;22.00;;;;;;;;5075859;27;45563;-90
2021/11/18 04:55:36;;;;;;;;;22.33;20.00;;;;;;;;5075039;28;44969;-92
2021/11/18 04:58:01;;;;;;;;;23.00;19.00;;;;;;;;5074917;28;47025;-89
2021/11/18 05:00:28;;;;;;;;;21.00;19.25;;;;;;;;5073373;28;45434;-90
2021/11/18 05:02:54;;;;;;;;;21.25;21.00;;;;;;;;5092870;28;45324;-89
2021/11/18 05:05:20;;;;;;;;;22.25;19.75;;;;;;;;5093575;27;44950;-88
2021/11/18 05:07:45;;;;;;;;;23.00;18.75;;;;;;;;5079040;28;46642;-92
2021/11/18 05:10:11;;;;;;;;;18.00;17.00;;;;;;;;5072598;28;45265;-89
2021/11/18 05:12:36;;;;;;;;;17.75;17.50;;;;;;;;5073391;28;44964;-88
2021/11/18 05:15:04;;;;;;;;;17.67;17.67;;;;;;;;5072823;28;44972;-89
2021/11/18 05:17:29;;;;;;;;;18.00;17.00;;;;;;;;5071176;28;48019;-91
2021/11/18 05:19:54;;;;;;;;;23.00;20.33;;;;;;;;5071144;28;45140;-93
2021/11/18 05:22:19;;;;;;;;;20.67;19.00;;;;;;;;5071026;28;45013;-94
2021/11/18 05:24:45;;;;;;;;;19.67;19.33;;;;;;;;5071122;28;44983;-91
2021/11/18 05:27:11;;;;;;;;;20.33;18.00;;;;;;;;5071356;28;47356;-88
2021/11/18 05:29:36;;;;;;;;;23.50;21.00;;;;;;;;5071177;28;45517;-93
2021/11/18 05:32:02;;;;;;;;;22.00;19.00;;;;;;;;5071492;28;45090;-93
2021/11/18 05:34:27;;;;;;;;;20.50;18.00;;;;;;;;5071452;28;45179;-90
2021/11/18 05:36:52;;;;;;;;;18.00;18.00;;;;;;;;5071204;28;47393;-92
2021/11/18 05:39:17;;;;;;;;;18.67;17.00;;;;;;;;5071643;28;45059;-88
2021/11/18 05:41:43;;;;;;;;;23.33;20.67;;;;;;;;5071591;28;45270;-90
2021/11/18 05:44:08;;;;;;;;;18.50;18.00;;;;;;;;5071726;28;45170;-90
2021/11/18 05:46:34;;;;;;;;;21.67;21.00;;;;;;;;5072100;28;45375;-90
2021/11/18 05:49:00;;;;;;;;;22.00;20.50;;;;;;;;5070676;28;45802;-93
2021/11/18 05:51:26;;;;;;;;;21.75;19.50;;;;;;;;5071263;28;44985;-90
2021/11/18 05:53:51;;;;;;;;;18.00;17.00;;;;;;;;5073226;28;45182;-93
2021/11/18 05:56:18;;;;;;;;;19.25;18.00;;;;;;;;5082727;27;47388;-86
2021/11/18 05:58:44;;;;;;;;;24.00;20.50;;;;;;;;5091071;28;45102;-93
2021/11/18 06:01:11;;;;;;;;;20.00;19.25;;;;;;;;5091449;28;45240;-92
2021/11/18 06:03:38;;;;;;;;;23.75;20.25;;;;;;;;5093379;28;44976;-92
2021/11/18 06:06:04;;;;;;;;;21.00;19.00;;;;;;;;5090260;28;46959;-91
2021/11/18 06:08:29;;;;;;;;;19.00;18.00;;;;;;;;5090719;28;45121;-89
2021/11/18 06:10:54;;;;;;;;;19.67;18.33;;;;;;;;5092416;28;44952;-89
2021/11/18 06:13:20;;;;;;;;;21.00;19.33;;;;;;;;5089536;28;45161;-89
2021/11/18 06:15:45;;;;;;;;;23.00;21.00;;;;;;;;5092277;27;45584;-88
2021/11/18 06:18:10;;;;;;;;;26.00;21.00;;;;;;;;5074098;28;45174;-90
2021/11/18 06:20:35;;;;;;;;;27.33;22.00;;;;;;;;5072249;28;44951;-94
2021/11/18 06:23:01;;;;;;;;;20.50;19.75;;;;;;;;5073546;28;45195;-91
2021/11/18 06:25:28;;;;;;;;;18.75;17.75;;;;;;;;5073750;28;47392;-90
2021/11/18 06:27:53;;;;;;;;;21.25;20.00;;;;;;;;5063912;28;45315;-87
2021/11/18 06:30:45;;;;;;;;;23.50;22.00;;;;;;;;5068405;28;44989;-85
2021/11/18 06:33:10;;;;;;;;;22.50;22.00;;;;;;;;5068698;28;44972;-90
2021/11/18 06:35:36;;;;;;;;;27.25;23.50;;;;;;;;5067826;28;47803;-86
2021/11/18 06:38:02;;;;;;;;;20.25;18.50;;;;;;;;5060014;28;45672;-88
2021/11/18 06:40:27;;;;;;;;;23.00;22.25;;;;;;;;5066179;28;45451;-91
2021/11/18 06:42:53;;;;;;;;;22.75;19.75;;;;;;;;5071080;28;44921;-90
2021/11/18 06:45:20;;;;;;;;;22.67;21.33;;;;;;;;5073146;28;47710;-93
2021/11/18 06:47:45;;;;;;;;;22.75;20.00;;;;;;;;5091606;27;45071;-91
2021/11/18 06:50:10;;;;;;;;;22.00;21.33;;;;;;;;5088034;28;45186;-90
2021/11/18 06:52:36;;;;;;;;;20.25;18.50;;;;;;;;5089183;27;45171;-90
2021/11/18 06:55:02;;;;;;;;;24.33;24.33;;;;;;;;5085639;28;47416;-92
2021/11/18 06:57:27;;;;;;;;;24.25;22.75;;;;;;;;5073004;28;45868;-86
2021/11/18 06:59:54;;;;;;;;;20.67;19.00;;;;;;;;5075108;27;45543;-93
2021/11/18 07:02:20;;;;;;;;;24.50;20.75;;;;;;;;5064578;27;45399;-90
2021/11/18 07:04:48;;;;;;;;;20.33;19.33;;;;;;;;5063484;27;47241;-86
2021/11/18 07:07:13;;;;;;;;;28.50;24.25;;;;;;;;5067018;28;45794;-91
2021/11/18 07:09:38;;;;;;;;;22.33;20.67;;;;;;;;5066074;28;45474;-92
2021/11/18 07:12:05;;;;;;;;;29.00;27.00;;;;;;;;5071341;28;45333;-88
2021/11/18 07:14:30;;;;;;;;;28.75;27.50;;;;;;;;5072782;28;47967;-93
2021/11/18 07:16:56;;;;;;;;;26.00;23.00;;;;;;;;5080291;27;45447;-94
2021/11/18 07:19:21;;;;;;;;;28.00;24.67;;;;;;;;5073310;28;45245;-94
2021/11/18 07:21:47;;;;;;;;;34.00;30.00;;;;;;;;5073462;28;45019;-93
2021/11/18 07:24:12;;;;;;;;;24.75;22.50;;;;;;;;5075592;28;45578;-87
2021/11/18 07:26:38;;;;;;;;;27.25;25.75;;;;;;;;5073209;28;45194;-90
2021/11/18 07:29:05;;;;;;;;;26.33;24.33;;;;;;;;5089693;27;45604;-88
2021/11/18 07:31:30;;;;;;;;;33.50;28.50;;;;;;;;5089208;28;45589;-93
2021/11/18 07:33:55;;;;;;;;;31.75;29.25;;;;;;;;5081492;27;46991;-94
2021/11/18 07:36:20;;;;;;;;;34.33;30.67;;;;;;;;5069918;28;45674;-92
2021/11/18 07:38:46;;;;;;;;;32.67;32.33;;;;;;;;5061684;28;45546;-90
2021/11/18 07:41:11;;;;;;;;;33.00;29.33;;;;;;;;5084424;28;45142;-91
2021/11/18 07:43:38;;;;;;;;;43.67;38.33;;;;;;;;5068391;27;47794;-88
2021/11/18 07:46:04;;;;;;;;;46.25;40.25;;;;;;;;5080137;28;45378;-87
2021/11/18 07:48:30;;;;;;;;;41.75;37.00;;;;;;;;5065105;27;45489;-90
2021/11/18 07:50:56;;;;;;;;;39.75;37.00;;;;;;;;5063265;28;45508;-87
2021/11/18 07:53:21;;;;;;;;;38.50;34.00;;;;;;;;5074060;27;46757;-87
2021/11/18 07:55:47;;;;;;;;;36.67;31.00;;;;;;;;5071348;27;45501;-88
2021/11/18 07:58:13;;;;;;;;;31.00;29.75;;;;;;;;5069277;27;45464;-87
2021/11/18 08:00:38;;;;;;;;;33.50;31.50;;;;;;;;5059475;28;45412;-89
2021/11/18 08:03:08;;;;;;;;;36.00;35.00;;;;;;;;5066389;28;47183;-87
2021/11/18 08:05:33;;;;;;;;;31.50;27.50;;;;;;;;5056159;28;45471;-85
2021/11/18 08:07:58;;;;;;;;;34.25;31.75;;;;;;;;5056014;28;45512;-83
2021/11/18 08:10:27;;;;;;;;;37.67;34.33;;;;;;;;5063617;28;45577;-84
2021/11/18 08:12:52;;;;;;;;;45.50;38.50;;;;;;;;5065308;27;45840;-87
2021/11/18 08:15:18;;;;;;;;;37.67;34.33;;;;;;;;5059666;28;45517;-87
2021/11/18 08:17:43;;;;;;;;;43.25;39.00;;;;;;;;5054485;28;45531;-83
2021/11/18 08:20:09;;;;;;;;;44.00;38.50;;;;;;;;5063003;28;45601;-88
2021/11/18 08:22:35;;;;;;;;;49.50;42.75;;;;;;;;5071448;27;45542;-84
2021/11/18 08:25:00;;;;;;;;;48.75;42.50;;;;;;;;5052943;28;45318;-88
2021/11/18 08:27:25;;;;;;;;;49.50;42.25;;;;;;;;5052182;28;45483;-89
2021/11/18 08:29:50;;;;;;;;;50.67;40.33;;;;;;;;5061140;27;45609;-85
2021/11/18 08:32:16;;;;;;;;;47.00;40.25;;;;;;;;5052797;28;47203;-87
2021/11/18 08:34:42;;;;;;;;;44.75;39.00;;;;;;;;5054766;28;45759;-89
2021/11/18 08:37:08;;;;;;;;;45.50;39.75;;;;;;;;5071025;27;45257;-91
2021/11/18 08:39:34;;;;;;;;;40.00;37.75;;;;;;;;5070802;27;45805;-91
2021/11/18 08:42:01;;;;;;;;;38.50;37.00;;;;;;;;5072414;27;45450;-89
2021/11/18 08:44:27;;;;;;;;;35.75;34.50;;;;;;;;5070438;28;45564;-90
2021/11/18 08:46:55;;;;;;;;;39.00;36.25;;;;;;;;5069881;27;45579;-88
2021/11/18 08:49:21;;;;;;;;;34.75;31.00;;;;;;;;5065463;28;45522;-87
2021/11/18 08:51:46;;;;;;;;;42.25;36.00;;;;;;;;5055163;28;46252;-89
2021/11/18 08:54:13;;;;;;;;;35.00;33.00;;;;;;;;5068967;28;45427;-86
2021/11/18 08:56:38;;;;;;;;;30.75;29.00;;;;;;;;5069667;28;45435;-85
2021/11/18 08:59:05;;;;;;;;;23.50;22.75;;;;;;;;5054515;27;45323;-88
2021/11/18 09:01:35;;;;;;;;;27.00;20.50;;;;;;;;5049625;28;47122;-86
2021/11/18 09:04:02;;;;;;;;;20.50;19.75;;;;;;;;5050029;28;45851;-86
2021/11/18 09:06:28;;;;;;;;;24.25;22.50;;;;;;;;5050010;28;45421;-85
2021/11/18 09:08:54;;;;;;;;;24.25;21.25;;;;;;;;5051813;28;45520;-89
2021/11/18 09:11:20;;;;;;;;;23.25;20.25;;;;;;;;5066484;27;47485;-85
2021/11/18 09:13:45;;;;;;;;;24.75;21.75;;;;;;;;5070207;28;45912;-87
2021/11/18 09:16:11;;;;;;;;;22.25;21.25;;;;;;;;5071642;27;45577;-86
2021/11/18 09:18:40;;;;;;;;;23.00;21.33;;;;;;;;5071366;28;45479;-85
2021/11/18 09:21:06;;;;;;;;;20.75;20.75;;;;;;;;5068832;28;47335;-89
2021/11/18 09:23:34;;;;;;;;;21.25;20.50;;;;;;;;5070638;27;45298;-87
2021/11/18 09:26:00;;;;;;;;;26.50;26.00;;;;;;;;5068729;28;45677;-91
2021/11/18 09:28:26;;;;;;;;;29.50;27.25;;;;;;;;5049680;28;45460;-90
2021/11/18 09:30:53;;;;;;;;;30.50;28.50;;;;;;;;5050751;28;47518;-89
2021/11/18 09:33:19;;;;;;;;;30.50;29.25;;;;;;;;5049348;28;45843;-84
2021/11/18 09:35:46;;;;;;;;;37.25;31.75;;;;;;;;5056097;28;45473;-91
2021/11/18 09:38:12;;;;;;;;;30.50;30.25;;;;;;;;5075351;28;45186;-92
2021/11/18 09:40:41;;;;;;;;;29.25;27.75;;;;;;;;5085248;28;47485;-94
2021/11/18 09:43:18;;;;;;;;;40.00;35.00;;;;;;;;5069596;27;45131;-88
2021/11/18 09:45:50;;;;;;;;;34.50;31.25;;;;;;;;5079463;28;45139;-88
2021/11/18 09:48:28;;;;;;;;;34.75;33.25;;;;;;;;5072907;27;45823;-89
2021/11/18 09:51:12;;;;;;;;;33.00;32.25;;;;;;;;5055659;28;46380;-85
2021/11/18 09:53:37;;;;;;;;;33.00;30.00;;;;;;;;5051696;28;45484;-90
2021/11/18 09:56:25;;;;;;;;;27.33;27.33;;;;;;;;5054321;28;45531;-87
2021/11/18 09:59:09;;;;;;;;;32.75;32.00;;;;;;;;5056272;28;45366;-93
2021/11/18 10:01:41;;;;;;;;;38.25;36.00;;;;;;;;5049351;28;47237;-87
2021/11/18 10:04:21;;;;;;;;;32.25;31.00;;;;;;;;5070881;28;45555;-90
2021/11/18 10:06:51;;;;;;;;;33.00;31.25;;;;;;;;5069302;28;45497;-88
2021/11/18 10:09:18;;;;;;;;;36.75;33.75;;;;;;;;5070064;28;45420;-88
2021/11/18 10:11:52;;;;;;;;;25.00;22.50;;;;;;;;5070598;27;46286;-91
2021/11/18 10:14:21;;;;;;;;;34.50;30.00;;;;;;;;5068437;28;45418;-92
2021/11/18 10:16:53;;;;;;;;;32.00;29.75;;;;;;;;5074484;27;45510;-92
2021/11/18 10:19:22;;;;;;;;;33.00;30.25;;;;;;;;5070399;27;45560;-90
2021/11/18 10:21:47;;;;;;;;;38.00;34.50;;;;;;;;5069691;28;48200;-89
2021/11/18 10:24:15;;;;;;;;;33.00;30.67;;;;;;;;5072570;28;45267;-90
2021/11/18 10:26:44;;;;;;;;;26.50;26.25;;;;;;;;5072972;27;45411;-92
2021/11/18 10:29:09;;;;;;;;;37.75;34.00;;;;;;;;5073545;27;45797;-93
2021/11/18 10:31:48;;;;;;;;;34.33;30.00;;;;;;;;5073148;28;47209;-92
2021/11/18 10:34:22;;;;;;;;;46.00;37.00;;;;;;;;5072551;27;45805;-89
2021/11/18 10:37:03;;;;;;;;;38.75;35.75;;;;;;;;5073163;28;45619;-92
2021/11/18 10:39:41;;;;;;;;;43.75;38.25;;;;;;;;5073478;28;45640;-91
2021/11/18 10:42:18;;;;;;;;;47.75;39.25;;;;;;;;5073868;28;48185;-93
2021/11/18 10:44:46;;;;;;;;;42.75;36.25;;;;;;;;5075731;28;45407;-93
2021/11/18 10:47:20;;;;;;;;;39.75;36.25;;;;;;;;5073806;28;45699;-91
2021/11/18 10:49:45;;;;;;;;;41.25;35.75;;;;;;;;5072999;28;45628;-92
2021/11/18 10:52:20;;;;;;;;;39.00;35.00;;;;;;;;5074848;28;45648;-91
2021/11/18 10:54:48;;;;;;;;;40.50;37.00;;;;;;;;5073021;28;45811;-91
2021/11/18 10:57:15;;;;;;;;;38.75;35.50;;;;;;;;5072627;28;45467;-89
2021/11/18 10:59:42;;;;;;;;;37.50;35.50;;;;;;;;5072987;28;45611;-93
2021/11/18 11:02:26;;;;;;;;;41.50;38.00;;;;;;;;5073012;28;48000;-90
2021/11/18 11:04:57;;;;;;;;;45.50;38.25;;;;;;;;5073701;28;45695;-93
2021/11/18 11:07:36;;;;;;;;;44.75;37.75;;;;;;;;5072428;28;45435;-91
2021/11/18 11:10:03;;;;;;;;;43.25;37.75;;;;;;;;5073793;28;45497;-89
2021/11/18 11:12:33;;;;;;;;;46.00;38.00;;;;;;;;5073342;28;47820;-91
2021/11/18 11:15:16;;;;;;;;;43.50;37.00;;;;;;;;5074875;27;45502;-92
2021/11/18 11:17:54;;;;;;;;;39.75;37.00;;;;;;;;5074354;28;45746;-91
2021/11/18 11:20:24;;;;;;;;;34.00;31.75;;;;;;;;5071773;28;45516;-93
2021/11/18 11:22:49;;;;;;;;;40.00;36.75;;;;;;;;5073935;27;45488;-91
2021/11/18 11:25:18;;;;;;;;;40.67;35.00;;;;;;;;5073301;28;45465;-88
2021/11/18 11:27:45;;;;;;;;;37.50;34.50;;;;;;;;5072278;28;45307;-92
2021/11/18 11:30:11;;;;;;;;;35.75;34.00;;;;;;;;5072517;28;45382;-93
2021/11/18 11:32:42;;;;;;;;;36.75;34.00;;;;;;;;5072471;28;46973;-92
2021/11/18 11:35:22;;;;;;;;;42.00;35.75;;;;;;;;5072864;28;45526;-90
2021/11/18 11:37:47;;;;;;;;;46.75;40.00;;;;;;;;5073964;28;45309;-92
2021/11/18 11:40:30;;;;;;;;;40.33;38.00;;;;;;;;5073829;28;45390;-87
2021/11/18 11:42:59;;;;;;;;;44.00;38.25;;;;;;;;5073007;28;48538;-91
2021/11/18 11:45:41;;;;;;;;;35.25;33.50;;;;;;;;5074112;27;46147;-91
2021/11/18 11:48:09;;;;;;;;;34.00;33.00;;;;;;;;5074932;27;45471;-91
2021/11/18 11:50:43;;;;;;;;;44.00;39.50;;;;;;;;5073412;28;45571;-91
2021/11/18 11:53:10;;;;;;;;;36.50;34.50;;;;;;;;5073833;28;46381;-89
2021/11/18 11:55:46;;;;;;;;;44.25;37.50;;;;;;;;5071906;28;45706;-90
2021/11/18 11:58:24;;;;;;;;;39.00;35.75;;;;;;;;5072178;27;45536;-92
2021/11/18 12:00:50;;;;;;;;;38.75;35.25;;;;;;;;5074322;27;45412;-91
2021/11/18 12:03:18;;;;;;;;;37.25;34.75;;;;;;;;5082621;28;45436;-88
2021/11/18 12:05:47;;;;;;;;;35.75;32.50;;;;;;;;5086343;28;45187;-90
2021/11/18 12:08:18;;;;;;;;;37.00;34.50;;;;;;;;5073558;27;45540;-90
2021/11/18 12:10:50;;;;;;;;;37.00;34.75;;;;;;;;5072822;28;45546;-92
2021/11/18 12:13:28;;;;;;;;;35.75;33.25;;;;;;;;5072921;27;46736;-88
2021/11/18 12:16:03;;;;;;;;;39.25;34.50;;;;;;;;5073445;27;45899;-91
2021/11/18 12:18:49;;;;;;;;;36.00;32.50;;;;;;;;5070614;27;45370;-90
2021/11/18 12:21:19;;;;;;;;;30.25;30.00;;;;;;;;5071526;28;45508;-91
2021/11/18 12:23:59;;;;;;;;;31.00;28.00;;;;;;;;5061094;28;46609;-92
2021/11/18 12:26:25;;;;;;;;;28.00;25.50;;;;;;;;5060944;28;45970;-89
2021/11/18 12:29:13;;;;;;;;;28.75;22.00;;;;;;;;5069157;28;45676;-90
2021/11/18 12:31:56;;;;;;;;;25.75;24.75;;;;;;;;5062241;28;46153;-92
2021/11/18 12:34:42;;;;;;;;;24.25;23.50;;;;;;;;5075133;28;48280;-91
2021/11/18 12:37:36;;;;;;;;;21.50;19.75;;;;;;;;5075718;28;45931;-91
2021/11/18 12:40:02;;;;;;;;;29.25;26.75;;;;;;;;5038719;28;45467;-92
2021/11/18 12:42:30;;;;;;;;;25.75;22.75;;;;;;;;5056118;28;45526;-93
2021/11/18 12:44:58;;;;;;;;;27.25;25.75;;;;;;;;5056322;28;45482;-89
2021/11/18 12:47:42;;;;;;;;;23.25;21.25;;;;;;;;5057501;28;45439;-90
2021/11/18 12:50:19;;;;;;;;;23.25;22.00;;;;;;;;5050961;28;45738;-91
2021/11/18 12:53:03;;;;;;;;;24.00;23.75;;;;;;;;5050570;28;45323;-89
2021/11/18 12:55:49;;;;;;;;;24.75;23.75;;;;;;;;5052174;28;48321;-89
2021/11/18 12:58:26;;;;;;;;;36.75;33.00;;;;;;;;5039490;28;45437;-90
2021/11/18 13:00:59;;;;;;;;;35.50;33.50;;;;;;;;5050930;28;45520;-89
2021/11/18 13:03:42;;;;;;;;;36.50;33.75;;;;;;;;5049987;28;45616;-90
2021/11/18 13:06:07;;;;;;;;;35.25;33.75;;;;;;;;5049419;28;47402;-88
2021/11/18 13:08:39;;;;;;;;;33.33;33.00;;;;;;;;5050232;28;45439;-90
2021/11/18 13:11:22;;;;;;;;;42.50;36.00;;;;;;;;5051802;28;45504;-91
2021/11/18 13:13:48;;;;;;;;;42.25;38.00;;;;;;;;5052224;28;45378;-90
2021/11/18 13:16:39;;;;;;;;;32.67;31.00;;;;;;;;5050408;28;48128;-91
2021/11/18 13:19:04;;;;;;;;;39.75;35.25;;;;;;;;5020390;28;45930;-91
2021/11/18 13:21:48;;;;;;;;;45.00;36.67;;;;;;;;5050826;28;45747;-90
2021/11/18 13:24:13;;;;;;;;;46.00;39.00;;;;;;;;5051230;28;45573;-89
2021/11/18 13:26:48;;;;;;;;;49.33;40.00;;;;;;;;5051264;28;46201;-90
2021/11/18 13:29:19;;;;;;;;;48.50;40.00;;;;;;;;5050398;28;46040;-90
2021/11/18 13:31:56;;;;;;;;;46.75;38.25;;;;;;;;5049912;28;45450;-90
2021/11/18 13:34:23;;;;;;;;;46.25;36.50;;;;;;;;5049937;28;45451;-88
2021/11/18 13:37:03;;;;;;;;;43.25;37.25;;;;;;;;5050079;28;47568;-90
2021/11/18 13:39:28;;;;;;;;;45.50;38.75;;;;;;;;5049301;28;45320;-88
2021/11/18 13:41:55;;;;;;;;;51.67;43.00;;;;;;;;5050522;28;45475;-89
2021/11/18 13:44:26;;;;;;;;;45.25;40.00;;;;;;;;5050044;28;45675;-89
2021/11/18 13:46:57;;;;;;;;;47.50;39.50;;;;;;;;5068164;27;46766;-92
2021/11/18 13:49:23;;;;;;;;;46.75;39.50;;;;;;;;5069833;28;45474;-90
2021/11/18 13:51:48;;;;;;;;;56.00;44.25;;;;;;;;5069773;27;45411;-91
2021/11/18 13:54:32;;;;;;;;;49.33;41.67;;;;;;;;5069243;28;45442;-89
2021/11/18 13:57:07;;;;;;;;;49.00;39.75;;;;;;;;5070709;27;47102;-91
2021/11/18 13:59:48;;;;;;;;;48.50;39.75;;;;;;;;5071475;27;45382;-90
2021/11/18 14:02:16;;;;;;;;;52.25;42.50;;;;;;;;5069889;27;45319;-91
2021/11/18 14:04:47;;;;;;;;;53.75;43.00;;;;;;;;5070005;28;45575;-92
2021/11/18 14:07:14;;;;;;;;;43.75;36.00;;;;;;;;5070253;27;48430;-89
2021/11/18 14:09:42;;;;;;;;;31.50;28.00;;;;;;;;5069464;28;45885;-90
2021/11/18 14:12:17;;;;;;;;;24.25;23.00;;;;;;;;5070310;28;45928;-89
2021/11/18 14:14:45;;;;;;;;;28.25;26.00;;;;;;;;5070086;28;45398;-90
2021/11/18 14:17:16;;;;;;;;;27.50;26.75;;;;;;;;5069695;27;47966;-90
2021/11/18 14:19:55;;;;;;;;;35.00;30.75;;;;;;;;5069716;27;45417;-91
2021/11/18 14:22:28;;;;;;;;;36.50;32.50;;;;;;;;5070084;28;45371;-90